createdAt,value
2018-08-04T00:00:41.648Z,24.49
2018-08-04T00:03:10.915Z,24.45
2018-08-04T00:05:39.517Z,24.41
2018-08-04T00:08:08.984Z,24.33
2018-08-04T00:10:38.475Z,24.27
2018-08-04T00:13:07.880Z,24.23
2018-08-04T00:15:37.378Z,24.18
2018-08-04T00:18:09.294Z,24.12
2018-08-04T00:20:38.291Z,24.06
2018-08-04T00:23:07.783Z,24.00
2018-08-04T00:25:37.790Z,23.95
2018-08-04T00:28:07.797Z,23.88
2018-08-04T00:30:37.317Z,23.84
2018-08-04T00:33:07.648Z,23.74
2018-08-04T00:35:37.709Z,23.59
2018-08-04T00:38:07.412Z,23.55
2018-08-04T00:40:36.772Z,23.54
2018-08-04T00:43:06.584Z,23.52
2018-08-04T00:45:36.551Z,23.50
2018-08-04T00:48:06.665Z,23.45
2018-08-04T00:50:36.575Z,23.41
2018-08-04T00:53:06.866Z,23.37
2018-08-04T00:55:36.276Z,23.32
2018-08-04T00:58:07.216Z,23.25
2018-08-04T01:00:35.318Z,23.17
2018-08-04T01:03:03.360Z,22.99
2018-08-04T01:05:31.700Z,22.90
2018-08-04T01:07:59.722Z,22.89
2018-08-04T01:10:27.769Z,22.89
2018-08-04T01:12:55.806Z,22.87
2018-08-04T01:15:23.849Z,22.83
2018-08-04T01:17:51.890Z,22.77
2018-08-04T01:20:19.941Z,22.75
2018-08-04T01:22:48.271Z,22.72
2018-08-04T01:25:16.303Z,22.70
2018-08-04T01:27:44.319Z,22.67
2018-08-04T01:30:13.005Z,22.64
2018-08-04T01:32:48.871Z,22.64
2018-08-04T01:35:17.184Z,22.62
2018-08-04T01:37:45.264Z,22.65
2018-08-04T01:40:13.291Z,22.67
2018-08-04T01:42:41.326Z,22.69
2018-08-04T01:45:09.356Z,22.68
2018-08-04T01:47:37.432Z,22.67
2018-08-04T01:50:05.675Z,22.65
2018-08-04T01:52:33.717Z,22.61
2018-08-04T01:55:01.756Z,22.56
2018-08-04T01:57:29.889Z,22.51
2018-08-04T01:59:58.430Z,22.47
2018-08-04T02:02:26.474Z,22.43
2018-08-04T02:04:54.511Z,22.40
2018-08-04T02:07:22.612Z,22.37
2018-08-04T02:09:50.778Z,22.33
2018-08-04T02:12:18.816Z,22.29
2018-08-04T02:14:46.831Z,22.23
2018-08-04T02:17:14.863Z,22.18
2018-08-04T02:19:42.900Z,22.16
2018-08-04T02:22:11.244Z,22.13
2018-08-04T02:24:39.624Z,22.10
2018-08-04T02:27:08.630Z,22.09
2018-08-04T02:29:37.967Z,22.07
2018-08-04T02:32:08.029Z,22.04
2018-08-04T02:34:37.309Z,22.03
2018-08-04T02:37:06.600Z,21.98
2018-08-04T02:39:35.664Z,21.94
2018-08-04T02:42:04.896Z,21.93
2018-08-04T02:44:34.124Z,21.89
2018-08-04T02:47:03.202Z,21.86
2018-08-04T02:49:32.162Z,21.82
2018-08-04T02:52:00.223Z,21.82
2018-08-04T02:54:28.291Z,21.81
2018-08-04T02:56:56.323Z,21.76
2018-08-04T02:59:24.371Z,21.73
2018-08-04T03:01:52.422Z,21.67
2018-08-04T03:04:20.739Z,21.54
2018-08-04T03:06:48.838Z,21.47
2018-08-04T03:09:16.946Z,21.45
2018-08-04T03:11:45.472Z,21.41
2018-08-04T03:14:14.160Z,21.38
2018-08-04T03:16:42.584Z,21.34
2018-08-04T03:19:11.228Z,21.31
2018-08-04T03:21:39.996Z,21.26
2018-08-04T03:24:08.831Z,21.26
2018-08-04T03:26:38.057Z,21.21
2018-08-04T03:29:06.977Z,21.20
2018-08-04T03:31:36.154Z,21.18
2018-08-04T03:34:05.272Z,21.18
2018-08-04T03:36:34.655Z,21.21
2018-08-04T03:39:03.566Z,21.21
2018-08-04T03:41:32.216Z,21.23
2018-08-04T03:44:00.407Z,21.24
2018-08-04T03:46:28.479Z,21.22
2018-08-04T03:48:56.605Z,21.21
2018-08-04T03:51:24.652Z,21.18
2018-08-04T03:53:52.979Z,21.18
2018-08-04T03:56:21.039Z,21.18
2018-08-04T03:58:49.084Z,21.15
2018-08-04T04:01:17.149Z,21.17
2018-08-04T04:03:45.183Z,21.22
2018-08-04T04:06:13.275Z,21.27
2018-08-04T04:08:41.309Z,21.31
2018-08-04T04:11:09.323Z,21.35
2018-08-04T04:13:37.361Z,21.33
2018-08-04T04:16:05.396Z,21.37
2018-08-04T04:18:33.435Z,21.43
2018-08-04T04:21:01.531Z,21.42
2018-08-04T04:23:29.579Z,21.42
2018-08-04T04:25:57.619Z,21.49
2018-08-04T04:28:25.674Z,21.55
2018-08-04T04:30:53.735Z,21.59
2018-08-04T04:33:22.051Z,21.72
2018-08-04T04:35:50.104Z,21.86
2018-08-04T04:38:18.280Z,21.98
2018-08-04T04:40:46.439Z,22.08
2018-08-04T04:43:14.907Z,22.19
2018-08-04T04:45:42.990Z,22.36
2018-08-04T04:48:11.012Z,22.70
2018-08-04T04:50:39.091Z,22.94
2018-08-04T04:53:07.144Z,23.09
2018-08-04T04:55:35.177Z,23.34
2018-08-04T04:58:03.270Z,23.74
2018-08-04T05:00:31.311Z,24.27
2018-08-04T05:02:59.355Z,24.67
2018-08-04T05:05:27.415Z,24.87
2018-08-04T05:07:55.487Z,25.20
2018-08-04T05:10:23.530Z,25.38
2018-08-04T05:12:51.704Z,25.22
2018-08-04T05:15:19.751Z,25.00
2018-08-04T05:17:47.772Z,24.57
2018-08-04T05:20:15.874Z,24.08
2018-08-04T05:22:43.922Z,24.01
2018-08-04T05:25:11.959Z,23.86
2018-08-04T05:27:39.983Z,23.64
2018-08-04T05:30:08.246Z,23.49
2018-08-04T05:32:36.456Z,23.46
2018-08-04T05:35:04.528Z,23.37
2018-08-04T05:37:33.074Z,23.30
2018-08-04T05:40:01.075Z,23.31
2018-08-04T05:42:29.112Z,23.30
2018-08-04T05:44:57.490Z,23.29
2018-08-04T05:47:25.512Z,23.17
2018-08-04T05:49:53.541Z,23.10
2018-08-04T05:52:21.728Z,23.13
2018-08-04T05:54:49.755Z,23.19
2018-08-04T05:57:17.792Z,23.27
2018-08-04T05:59:46.419Z,23.33
2018-08-04T06:02:14.793Z,23.42
2018-08-04T06:04:43.118Z,23.51
2018-08-04T06:07:11.911Z,23.27
2018-08-04T06:09:40.430Z,23.39
2018-08-04T06:12:09.006Z,23.52
2018-08-04T06:14:37.973Z,23.63
2018-08-04T06:17:07.049Z,23.67
2018-08-04T06:19:36.129Z,23.75
2018-08-04T06:22:05.253Z,23.87
2018-08-04T06:24:34.545Z,24.09
2018-08-04T06:27:03.030Z,24.11
2018-08-04T06:29:31.425Z,24.27
2018-08-04T06:31:59.516Z,24.52
2018-08-04T06:34:27.546Z,24.72
2018-08-04T06:36:55.590Z,24.80
2018-08-04T06:39:23.643Z,25.02
2018-08-04T06:41:51.674Z,25.48
2018-08-04T06:44:19.683Z,25.69
2018-08-04T06:46:47.723Z,26.36
2018-08-04T06:49:15.742Z,26.81
2018-08-04T06:51:43.767Z,27.29
2018-08-04T06:54:12.100Z,28.08
2018-08-04T06:56:40.155Z,28.36
2018-08-04T06:59:08.182Z,28.45
2018-08-04T07:01:36.227Z,28.53
2018-08-04T07:04:04.264Z,28.36
2018-08-04T07:06:32.313Z,28.49
2018-08-04T07:09:00.352Z,28.54
2018-08-04T07:11:28.375Z,29.05
2018-08-04T07:13:56.406Z,29.20
2018-08-04T07:16:24.435Z,29.44
2018-08-04T07:18:52.590Z,29.30
2018-08-04T07:21:20.638Z,29.61
2018-08-04T07:23:49.052Z,30.24
2018-08-04T07:26:17.078Z,30.83
2018-08-04T07:28:45.316Z,31.13
2018-08-04T07:31:13.714Z,31.48
2018-08-04T07:33:41.743Z,31.61
2018-08-04T07:36:09.775Z,31.60
2018-08-04T07:38:37.838Z,31.39
2018-08-04T07:41:05.919Z,31.31
2018-08-04T07:43:33.923Z,30.95
2018-08-04T07:46:02.600Z,30.90
2018-08-04T07:48:31.085Z,31.02
2018-08-04T07:50:59.231Z,31.05
2018-08-04T07:53:27.266Z,31.18
2018-08-04T07:55:55.311Z,31.48
2018-08-04T07:58:23.499Z,31.60
2018-08-04T08:00:51.535Z,32.06
2018-08-04T08:03:19.587Z,32.49
2018-08-04T08:05:47.683Z,33.06
2018-08-04T08:08:15.855Z,33.48
2018-08-04T08:10:44.688Z,33.82
2018-08-04T08:13:13.051Z,33.74
2018-08-04T08:15:41.360Z,33.59
2018-08-04T08:18:09.869Z,34.06
2018-08-04T08:20:38.498Z,33.48
2018-08-04T08:23:07.497Z,32.82
2018-08-04T08:25:36.546Z,32.92
2018-08-04T08:28:04.924Z,32.66
2018-08-04T08:30:34.692Z,32.65
2018-08-04T08:33:03.642Z,32.38
2018-08-04T08:35:32.219Z,32.03
2018-08-04T08:38:00.330Z,32.12
2018-08-04T08:40:28.426Z,31.81
2018-08-04T08:42:56.463Z,31.84
2018-08-04T08:45:24.497Z,31.76
2018-08-04T08:47:52.982Z,31.68
2018-08-04T08:50:21.332Z,32.15
2018-08-04T08:52:49.389Z,32.37
2018-08-04T08:55:17.436Z,32.59
2018-08-04T08:57:45.531Z,32.71
2018-08-04T09:00:13.595Z,32.67
2018-08-04T09:02:41.664Z,32.52
2018-08-04T09:05:10.444Z,32.30
2018-08-04T09:07:38.471Z,32.20
2018-08-04T09:10:08.756Z,32.11
2018-08-04T09:12:36.823Z,32.38
2018-08-04T09:15:05.200Z,32.49
2018-08-04T09:17:33.267Z,32.57
2018-08-04T09:20:01.327Z,32.89
2018-08-04T09:22:29.397Z,33.15
2018-08-04T09:24:57.624Z,33.16
2018-08-04T09:27:25.975Z,32.86
2018-08-04T09:29:54.036Z,33.16
2018-08-04T09:32:22.143Z,33.25
2018-08-04T09:34:50.206Z,33.20
2018-08-04T09:37:18.252Z,32.40
2018-08-04T09:39:46.332Z,33.18
2018-08-04T09:42:14.400Z,33.84
2018-08-04T09:44:42.494Z,33.92
2018-08-04T09:47:10.539Z,34.18
2018-08-04T09:49:38.736Z,33.66
2018-08-04T09:52:06.937Z,33.42
2018-08-04T09:54:35.120Z,33.59
2018-08-04T09:57:03.224Z,33.93
2018-08-04T09:59:31.328Z,33.97
2018-08-04T10:02:04.747Z,33.61
2018-08-04T10:04:32.913Z,32.84
2018-08-04T10:07:01.368Z,32.61
2018-08-04T10:09:29.414Z,31.90
2018-08-04T10:11:57.519Z,31.72
2018-08-04T10:14:25.803Z,31.33
2018-08-04T10:16:54.241Z,31.28
2018-08-04T10:19:22.650Z,31.23
2018-08-04T10:21:50.695Z,31.19
2018-08-04T10:24:18.880Z,31.06
2018-08-04T10:26:47.400Z,31.04
2018-08-04T10:29:16.325Z,30.83
2018-08-04T10:31:45.383Z,30.52
2018-08-04T10:34:13.873Z,30.47
2018-08-04T10:36:41.971Z,30.04
2018-08-04T10:39:10.635Z,30.38
2018-08-04T10:41:38.678Z,30.51
2018-08-04T10:44:06.877Z,30.35
2018-08-04T10:46:34.939Z,30.45
2018-08-04T10:49:03.016Z,30.36
2018-08-04T10:51:31.065Z,30.19
2018-08-04T10:53:59.132Z,30.44
2018-08-04T10:56:27.427Z,30.45
2018-08-04T10:58:55.619Z,30.51
2018-08-04T11:01:23.653Z,30.54
2018-08-04T11:03:51.732Z,30.45
2018-08-04T11:06:19.827Z,30.62
2018-08-04T11:08:47.859Z,30.73
2018-08-04T11:11:15.995Z,30.76
2018-08-04T11:13:44.035Z,30.82
2018-08-04T11:16:12.097Z,30.90
2018-08-04T11:18:40.148Z,30.85
2018-08-04T11:21:08.205Z,30.99
2018-08-04T11:23:36.393Z,30.94
2018-08-04T11:26:04.460Z,30.81
2018-08-04T11:28:32.503Z,30.77
2018-08-04T11:31:00.586Z,30.82
2018-08-04T11:33:28.578Z,30.91
2018-08-04T11:35:56.714Z,30.91
2018-08-04T11:38:24.745Z,30.74
2018-08-04T11:40:52.820Z,30.91
2018-08-04T11:43:21.174Z,30.97
2018-08-04T11:45:49.224Z,30.79
2018-08-04T11:48:17.270Z,30.78
2018-08-04T11:50:45.624Z,30.94
2018-08-04T11:53:13.651Z,31.01
2018-08-04T11:55:42.251Z,30.92
2018-08-04T11:58:11.164Z,30.97
2018-08-04T12:00:39.775Z,31.03
2018-08-04T12:03:09.015Z,31.19
2018-08-04T12:05:38.102Z,31.19
2018-08-04T12:08:07.966Z,31.12
2018-08-04T12:10:36.339Z,31.13
2018-08-04T12:13:04.362Z,31.23
2018-08-04T12:15:32.403Z,31.13
2018-08-04T12:18:00.469Z,31.22
2018-08-04T12:20:28.502Z,31.22
2018-08-04T12:22:56.531Z,31.31
2018-08-04T12:25:24.854Z,31.40
2018-08-04T12:27:52.870Z,31.48
2018-08-04T12:30:20.917Z,31.42
2018-08-04T12:32:49.212Z,31.53
2018-08-04T12:35:17.546Z,31.37
2018-08-04T12:37:46.196Z,31.29
2018-08-04T12:40:15.392Z,31.48
2018-08-04T12:42:44.224Z,31.54
2018-08-04T12:45:12.752Z,31.43
2018-08-04T12:47:41.334Z,31.52
2018-08-04T12:50:10.252Z,31.61
2018-08-04T12:52:39.213Z,31.89
2018-08-04T12:55:08.632Z,31.89
2018-08-04T12:57:37.510Z,32.03
2018-08-04T13:00:07.964Z,31.84
2018-08-04T13:02:37.215Z,31.81
2018-08-04T13:05:07.711Z,31.72
2018-08-04T13:07:35.749Z,31.74
2018-08-04T13:10:03.959Z,31.66
2018-08-04T13:12:32.039Z,31.64
2018-08-04T13:15:00.097Z,31.79
2018-08-04T13:17:28.140Z,31.74
2018-08-04T13:19:56.207Z,31.75
2018-08-04T13:22:24.401Z,31.69
2018-08-04T13:24:52.503Z,31.42
2018-08-04T13:27:20.544Z,31.55
2018-08-04T13:29:48.578Z,31.69
2018-08-04T13:32:17.257Z,31.86
2018-08-04T13:34:45.282Z,31.90
2018-08-04T13:37:13.387Z,31.78
2018-08-04T13:39:41.958Z,31.73
2018-08-04T13:42:10.023Z,31.76
2018-08-04T13:44:38.083Z,31.76
2018-08-04T13:47:06.154Z,31.75
2018-08-04T13:49:34.199Z,31.94
2018-08-04T13:52:02.500Z,31.80
2018-08-04T13:54:30.544Z,31.87
2018-08-04T13:56:58.572Z,31.83
2018-08-04T13:59:26.639Z,31.87
2018-08-04T14:01:54.682Z,31.74
2018-08-04T14:04:22.951Z,31.85
2018-08-04T14:06:51.003Z,31.99
2018-08-04T14:09:19.079Z,32.04
2018-08-04T14:11:47.391Z,32.06
2018-08-04T14:14:15.416Z,32.10
2018-08-04T14:16:43.454Z,32.09
2018-08-04T14:19:11.887Z,32.22
2018-08-04T14:21:40.740Z,32.02
2018-08-04T14:24:09.302Z,32.07
2018-08-04T14:26:37.958Z,31.91
2018-08-04T14:29:06.053Z,31.97
2018-08-04T14:31:34.084Z,32.11
2018-08-04T14:34:02.135Z,32.19
2018-08-04T14:36:30.199Z,32.25
2018-08-04T14:38:58.239Z,32.31
2018-08-04T14:41:26.330Z,32.40
2018-08-04T14:43:54.353Z,32.39
2018-08-04T14:46:22.389Z,32.53
2018-08-04T14:48:50.441Z,32.63
2018-08-04T14:51:18.555Z,32.63
2018-08-04T14:53:46.623Z,32.71
2018-08-04T14:56:14.724Z,32.55
2018-08-04T14:58:42.746Z,32.63
2018-08-04T15:01:10.796Z,32.41
2018-08-04T15:03:38.852Z,32.35
2018-08-04T15:06:06.876Z,32.50
2018-08-04T15:08:34.931Z,32.64
2018-08-04T15:11:02.950Z,32.66
2018-08-04T15:13:31.011Z,32.57
2018-08-04T15:15:59.095Z,32.53
2018-08-04T15:18:27.149Z,32.72
2018-08-04T15:20:55.284Z,32.75
2018-08-04T15:23:23.365Z,32.83
2018-08-04T15:25:51.431Z,32.91
2018-08-04T15:28:19.459Z,33.01
2018-08-04T15:30:47.576Z,33.00
2018-08-04T15:33:15.599Z,32.83
2018-08-04T15:35:43.634Z,32.52
2018-08-04T15:38:11.680Z,32.51
2018-08-04T15:40:39.728Z,32.45
2018-08-04T15:43:07.799Z,32.42
2018-08-04T15:45:35.844Z,32.16
2018-08-04T15:48:03.996Z,32.09
2018-08-04T15:50:32.003Z,32.06
2018-08-04T15:53:00.075Z,32.16
2018-08-04T15:55:28.134Z,32.07
2018-08-04T15:57:56.152Z,32.26
2018-08-04T16:00:24.211Z,32.30
2018-08-04T16:02:52.257Z,32.24
2018-08-04T16:05:20.295Z,32.07
2018-08-04T16:07:48.327Z,31.86
2018-08-04T16:10:16.379Z,31.88
2018-08-04T16:12:44.396Z,31.93
2018-08-04T16:15:12.439Z,31.81
2018-08-04T16:17:40.508Z,31.87
2018-08-04T16:20:12.056Z,31.76
2018-08-04T16:22:40.137Z,31.73
2018-08-04T16:25:08.177Z,31.46
2018-08-04T16:27:36.247Z,31.68
2018-08-04T16:30:04.763Z,31.57
2018-08-04T16:32:32.788Z,31.49
2018-08-04T16:35:00.840Z,31.37
2018-08-04T16:37:28.864Z,31.42
2018-08-04T16:39:57.156Z,31.46
2018-08-04T16:42:25.199Z,31.42
2018-08-04T16:44:53.264Z,31.45
2018-08-04T16:47:21.319Z,31.42
2018-08-04T16:52:11.860Z,31.29
2018-08-04T16:54:39.865Z,31.11
2018-08-04T16:57:07.976Z,30.98
2018-08-04T16:59:36.059Z,30.99
2018-08-04T17:02:04.107Z,31.05
2018-08-04T17:04:32.179Z,30.93
2018-08-04T17:07:00.225Z,31.00
2018-08-04T17:09:28.238Z,30.88
2018-08-04T17:11:56.296Z,30.69
2018-08-04T17:14:24.315Z,30.78
2018-08-04T17:16:52.347Z,30.79
2018-08-04T17:19:20.411Z,30.65
2018-08-04T17:21:48.459Z,30.56
2018-08-04T17:24:16.541Z,30.52
2018-08-04T17:26:44.555Z,30.50
2018-08-04T17:29:12.852Z,30.43
2018-08-04T17:31:40.883Z,30.31
2018-08-04T17:34:08.924Z,30.24
2018-08-04T17:36:36.975Z,30.33
2018-08-04T17:39:07.298Z,30.25
2018-08-04T17:41:35.341Z,30.23
2018-08-04T17:44:03.400Z,30.26
2018-08-04T17:46:31.804Z,30.31
2018-08-04T17:48:59.834Z,30.24
2018-08-04T17:51:27.928Z,30.09
2018-08-04T17:53:55.940Z,30.04
2018-08-04T17:56:23.956Z,29.98
2018-08-04T17:58:52.207Z,29.95
2018-08-04T18:01:20.267Z,29.96
2018-08-04T18:03:48.417Z,29.86
2018-08-04T18:06:16.491Z,29.77
2018-08-04T18:08:44.533Z,29.65
2018-08-04T18:11:12.588Z,29.59
2018-08-04T18:13:40.634Z,29.49
2018-08-04T18:16:08.749Z,29.47
2018-08-04T18:18:36.795Z,29.38
2018-08-04T18:21:05.188Z,29.33
2018-08-04T18:23:33.228Z,29.18
2018-08-04T18:26:02.005Z,29.02
2018-08-04T18:28:30.162Z,28.96
2018-08-04T18:30:58.329Z,28.95
2018-08-04T18:33:26.386Z,28.87
2018-08-04T18:35:54.439Z,28.78
2018-08-04T18:38:22.496Z,28.69
2018-08-04T18:40:50.560Z,28.71
2018-08-04T18:43:18.695Z,28.65
2018-08-04T18:45:46.723Z,28.54
2018-08-04T18:48:14.767Z,28.43
2018-08-04T18:50:42.836Z,28.24
2018-08-04T18:53:10.897Z,28.27
2018-08-04T18:55:38.923Z,28.16
2018-08-04T18:58:06.947Z,28.12
2018-08-04T19:00:35.135Z,28.06
2018-08-04T19:03:03.153Z,28.08
2018-08-04T19:05:31.516Z,27.99
2018-08-04T19:07:59.668Z,27.78
2018-08-04T19:10:27.784Z,27.76
2018-08-04T19:12:56.096Z,27.77
2018-08-04T19:15:24.248Z,27.66
2018-08-04T19:17:52.283Z,27.53
2018-08-04T19:20:20.339Z,27.52
2018-08-04T19:22:48.388Z,27.48
2018-08-04T19:25:17.104Z,27.44
2018-08-04T19:27:45.866Z,27.31
2018-08-04T19:30:14.529Z,27.18
2018-08-04T19:32:43.023Z,27.05
2018-08-04T19:35:11.774Z,27.07
2018-08-04T19:37:40.228Z,26.89
2018-08-04T19:40:08.914Z,26.91
2018-08-04T19:42:38.027Z,26.86
2018-08-04T19:45:07.125Z,26.78
2018-08-04T19:47:36.151Z,26.77
2018-08-04T19:50:05.470Z,26.74
2018-08-04T19:52:35.754Z,26.69
2018-08-04T19:55:05.834Z,26.66
2018-08-04T19:57:35.429Z,26.55
2018-08-04T20:00:05.386Z,26.51
2018-08-04T20:02:34.641Z,26.48
2018-08-04T20:05:04.841Z,26.48
2018-08-04T20:07:33.669Z,26.46
2018-08-04T20:10:02.630Z,26.37
2018-08-04T20:12:32.001Z,26.28
2018-08-04T20:15:00.176Z,26.23
2018-08-04T20:17:28.497Z,26.07
2018-08-04T20:19:57.408Z,25.96
2018-08-04T20:22:25.438Z,25.82
2018-08-04T20:24:53.664Z,25.84
2018-08-04T20:27:21.828Z,25.79
2018-08-04T20:29:49.868Z,25.82
2018-08-04T20:32:17.980Z,25.74
2018-08-04T20:34:46.332Z,25.68
2018-08-04T20:37:14.854Z,25.63
2018-08-04T20:39:43.592Z,25.51
2018-08-04T20:42:12.291Z,25.43
2018-08-04T20:44:40.750Z,25.37
2018-08-04T20:47:09.474Z,25.32
2018-08-04T20:49:38.063Z,25.18
2018-08-04T20:52:06.922Z,25.18
2018-08-04T20:54:35.083Z,25.13
2018-08-04T20:57:03.199Z,25.19
2018-08-04T20:59:31.241Z,25.10
2018-08-04T21:02:01.849Z,25.09
2018-08-04T21:04:31.132Z,24.94
2018-08-04T21:06:59.346Z,24.90
2018-08-04T21:12:30.411Z,24.81
2018-08-04T21:14:58.796Z,24.77
2018-08-04T21:17:26.883Z,24.66
2018-08-04T21:19:55.005Z,24.52
2018-08-04T21:22:23.123Z,24.49
2018-08-04T21:24:51.179Z,24.38
2018-08-04T21:27:19.583Z,24.21
2018-08-04T21:29:47.679Z,24.23
2018-08-04T21:32:15.788Z,24.20
2018-08-04T21:34:43.851Z,24.13
2018-08-04T21:37:11.960Z,24.06
2018-08-04T21:39:40.019Z,23.85
2018-08-04T21:42:08.106Z,23.85
2018-08-04T21:44:36.298Z,23.86
2018-08-04T21:47:04.415Z,23.77
2018-08-04T21:49:32.529Z,23.69
2018-08-04T21:52:00.567Z,23.69
2018-08-04T21:54:28.900Z,23.67
2018-08-04T21:57:00.655Z,23.60
2018-08-04T21:59:28.885Z,23.56
2018-08-04T22:01:57.552Z,23.58
2018-08-04T22:04:26.203Z,23.56
2018-08-04T22:08:03.164Z,23.51
2018-08-04T22:10:31.237Z,23.43
2018-08-04T22:12:59.347Z,23.40
2018-08-04T22:15:27.418Z,23.33
2018-08-04T22:17:55.507Z,23.31
2018-08-04T22:20:24.199Z,23.31
2018-08-04T22:22:52.543Z,23.29
2018-08-04T22:25:21.943Z,23.20
2018-08-04T22:27:50.267Z,23.06
2018-08-04T22:30:19.469Z,23.04
2018-08-04T22:32:47.948Z,23.03
2018-08-04T22:35:16.053Z,23.03
2018-08-04T22:37:44.363Z,23.07
2018-08-04T22:40:13.491Z,23.05
2018-08-04T22:42:41.876Z,23.01
2018-08-04T22:45:52.848Z,23.01
2018-08-04T22:48:21.993Z,22.98
2018-08-04T22:50:50.441Z,22.92
2018-08-04T22:53:18.804Z,22.91
2018-08-04T22:55:47.114Z,22.84
2018-08-04T22:58:15.238Z,22.83
2018-08-04T23:00:44.207Z,22.74
2018-08-04T23:03:12.887Z,22.70
2018-08-04T23:05:41.019Z,22.69
2018-08-04T23:08:09.977Z,22.69
2018-08-04T23:10:38.640Z,22.71
2018-08-04T23:13:06.955Z,22.67
2018-08-04T23:15:35.011Z,22.68
2018-08-04T23:18:03.060Z,22.64
2018-08-04T23:20:31.425Z,22.62
2018-08-04T23:23:00.003Z,22.63
2018-08-04T23:25:28.091Z,22.59
2018-08-04T23:27:56.175Z,22.61
2018-08-04T23:30:24.515Z,22.60
2018-08-04T23:32:53.128Z,22.59
2018-08-04T23:35:22.080Z,22.55
2018-08-04T23:37:50.642Z,22.53
2018-08-04T23:40:18.934Z,22.49
2018-08-04T23:42:47.028Z,22.45
2018-08-04T23:45:15.132Z,22.38
2018-08-04T23:47:43.222Z,22.36
2018-08-04T23:50:11.324Z,22.31
2018-08-04T23:52:39.338Z,22.24
2018-08-04T23:55:07.419Z,22.24
2018-08-04T23:57:35.494Z,22.22
